sensor_id;sensor_type;location;lat;lon;timestamp;temperature;humidity
2945;DHT22;1482;51.398;7.128;2023-07-30T00:00:37;17.00;1.00
2945;DHT22;1482;51.398;7.128;2023-07-30T00:03:02;16.90;1.00
2945;DHT22;1482;51.398;7.128;2023-07-30T00:05:28;16.80;99.90
2945;DHT22;1482;51.398;7.128;2023-07-30T00:07:54;16.80;99.90
2945;DHT22;1482;51.398;7.128;2023-07-30T00:10:20;16.70;99.90
2945;DHT22;1482;51.398;7.128;2023-07-30T00:12:46;16.70;99.90
2945;DHT22;1482;51.398;7.128;2023-07-30T00:15:11;16.60;99.90
2945;DHT22;1482;51.398;7.128;2023-07-30T00:17:38;16.60;99.90
2945;DHT22;1482;51.398;7.128;2023-07-30T00:20:05;16.50;99.90
2945;DHT22;1482;51.398;7.128;2023-07-30T00:22:31;16.50;1.00
2945;DHT22;1482;51.398;7.128;2023-07-30T00:24:56;16.50;99.90
2945;DHT22;1482;51.398;7.128;2023-07-30T00:27:22;16.50;1.00
2945;DHT22;1482;51.398;7.128;2023-07-30T00:29:47;16.50;1.00
2945;DHT22;1482;51.398;7.128;2023-07-30T00:32:13;16.40;1.00
2945;DHT22;1482;51.398;7.128;2023-07-30T00:34:41;16.40;1.00
2945;DHT22;1482;51.398;7.128;2023-07-30T00:37:06;16.30;1.00
2945;DHT22;1482;51.398;7.128;2023-07-30T00:39:32;16.30;95.00
2945;DHT22;1482;51.398;7.128;2023-07-30T00:41:57;16.30;99.90
2945;DHT22;1482;51.398;7.128;2023-07-30T00:44:23;16.30;1.00
2945;DHT22;1482;51.398;7.128;2023-07-30T00:46:49;16.20;1.00
2945;DHT22;1482;51.398;7.128;2023-07-30T00:49:15;16.20;99.90
2945;DHT22;1482;51.398;7.128;2023-07-30T00:51:41;16.20;99.90
2945;DHT22;1482;51.398;7.128;2023-07-30T00:54:07;16.20;1.00
2945;DHT22;1482;51.398;7.128;2023-07-30T00:56:33;16.10;1.00
2945;DHT22;1482;51.398;7.128;2023-07-30T00:58:59;16.10;99.90
2945;DHT22;1482;51.398;7.128;2023-07-30T01:01:25;16.10;1.00
2945;DHT22;1482;51.398;7.128;2023-07-30T01:03:51;16.10;1.00
2945;DHT22;1482;51.398;7.128;2023-07-30T01:06:17;16.10;41.40
2945;DHT22;1482;51.398;7.128;2023-07-30T01:08:42;16.10;99.90
2945;DHT22;1482;51.398;7.128;2023-07-30T01:11:09;16.10;1.00
2945;DHT22;1482;51.398;7.128;2023-07-30T01:13:35;16.10;1.00
2945;DHT22;1482;51.398;7.128;2023-07-30T01:16:01;16.10;99.90
2945;DHT22;1482;51.398;7.128;2023-07-30T01:18:28;16.00;1.00
2945;DHT22;1482;51.398;7.128;2023-07-30T01:20:57;16.00;1.00
2945;DHT22;1482;51.398;7.128;2023-07-30T01:23:23;15.90;99.90
2945;DHT22;1482;51.398;7.128;2023-07-30T01:25:49;15.90;2.60
2945;DHT22;1482;51.398;7.128;2023-07-30T01:28:17;15.90;1.00
2945;DHT22;1482;51.398;7.128;2023-07-30T01:30:45;15.90;1.00
2945;DHT22;1482;51.398;7.128;2023-07-30T01:33:11;15.80;99.90
2945;DHT22;1482;51.398;7.128;2023-07-30T01:35:38;15.80;99.90
2945;DHT22;1482;51.398;7.128;2023-07-30T01:38:03;15.70;99.90
2945;DHT22;1482;51.398;7.128;2023-07-30T01:40:31;15.70;52.20
2945;DHT22;1482;51.398;7.128;2023-07-30T01:42:57;15.70;21.80
2945;DHT22;1482;51.398;7.128;2023-07-30T01:45:23;15.70;1.00
2945;DHT22;1482;51.398;7.128;2023-07-30T01:47:48;15.70;12.80
2945;DHT22;1482;51.398;7.128;2023-07-30T01:50:14;15.60;1.00
2945;DHT22;1482;51.398;7.128;2023-07-30T01:52:39;15.60;1.00
2945;DHT22;1482;51.398;7.128;2023-07-30T01:55:05;15.60;22.80
2945;DHT22;1482;51.398;7.128;2023-07-30T01:57:31;15.60;99.90
2945;DHT22;1482;51.398;7.128;2023-07-30T01:59:56;15.50;99.90
2945;DHT22;1482;51.398;7.128;2023-07-30T02:02:22;15.60;99.90
2945;DHT22;1482;51.398;7.128;2023-07-30T02:04:47;15.60;99.90
2945;DHT22;1482;51.398;7.128;2023-07-30T02:07:13;15.60;99.90
2945;DHT22;1482;51.398;7.128;2023-07-30T02:09:38;15.60;99.90
2945;DHT22;1482;51.398;7.128;2023-07-30T02:12:04;15.60;99.90
2945;DHT22;1482;51.398;7.128;2023-07-30T02:14:30;15.60;1.00
2945;DHT22;1482;51.398;7.128;2023-07-30T02:16:55;15.60;99.90
2945;DHT22;1482;51.398;7.128;2023-07-30T02:19:21;15.60;1.00
2945;DHT22;1482;51.398;7.128;2023-07-30T02:21:46;15.60;1.00
2945;DHT22;1482;51.398;7.128;2023-07-30T02:24:12;15.60;99.90
2945;DHT22;1482;51.398;7.128;2023-07-30T02:26:38;15.60;1.00
2945;DHT22;1482;51.398;7.128;2023-07-30T02:29:04;15.60;99.90
2945;DHT22;1482;51.398;7.128;2023-07-30T02:31:30;15.60;1.00
2945;DHT22;1482;51.398;7.128;2023-07-30T02:33:56;15.50;1.00
2945;DHT22;1482;51.398;7.128;2023-07-30T02:36:21;15.50;1.00
2945;DHT22;1482;51.398;7.128;2023-07-30T02:38:47;15.60;1.00
2945;DHT22;1482;51.398;7.128;2023-07-30T02:41:13;15.60;1.00
2945;DHT22;1482;51.398;7.128;2023-07-30T02:43:39;15.50;1.00
2945;DHT22;1482;51.398;7.128;2023-07-30T02:46:04;15.60;1.00
2945;DHT22;1482;51.398;7.128;2023-07-30T02:48:30;15.60;1.00
2945;DHT22;1482;51.398;7.128;2023-07-30T02:50:55;15.60;99.90
2945;DHT22;1482;51.398;7.128;2023-07-30T02:53:21;15.60;99.90
2945;DHT22;1482;51.398;7.128;2023-07-30T02:55:46;15.60;99.90
2945;DHT22;1482;51.398;7.128;2023-07-30T02:58:12;15.60;99.90
2945;DHT22;1482;51.398;7.128;2023-07-30T03:00:37;15.50;99.90
2945;DHT22;1482;51.398;7.128;2023-07-30T03:03:03;15.50;99.90
2945;DHT22;1482;51.398;7.128;2023-07-30T03:05:28;15.50;99.90
2945;DHT22;1482;51.398;7.128;2023-07-30T03:07:54;15.50;99.90
2945;DHT22;1482;51.398;7.128;2023-07-30T03:10:20;15.40;99.90
2945;DHT22;1482;51.398;7.128;2023-07-30T03:12:45;15.40;99.90
2945;DHT22;1482;51.398;7.128;2023-07-30T03:15:11;15.30;1.00
2945;DHT22;1482;51.398;7.128;2023-07-30T03:17:36;15.30;99.90
2945;DHT22;1482;51.398;7.128;2023-07-30T03:20:02;15.30;99.90
2945;DHT22;1482;51.398;7.128;2023-07-30T03:22:29;15.30;99.90
2945;DHT22;1482;51.398;7.128;2023-07-30T03:24:55;15.20;99.90
2945;DHT22;1482;51.398;7.128;2023-07-30T03:27:20;15.20;99.90
2945;DHT22;1482;51.398;7.128;2023-07-30T03:29:46;15.20;99.90
2945;DHT22;1482;51.398;7.128;2023-07-30T03:32:11;15.20;99.90
2945;DHT22;1482;51.398;7.128;2023-07-30T03:34:37;15.10;99.90
2945;DHT22;1482;51.398;7.128;2023-07-30T03:37:02;15.10;99.90
2945;DHT22;1482;51.398;7.128;2023-07-30T03:39:28;15.10;99.90
2945;DHT22;1482;51.398;7.128;2023-07-30T03:41:54;15.10;99.90
2945;DHT22;1482;51.398;7.128;2023-07-30T03:44:19;15.10;99.90
2945;DHT22;1482;51.398;7.128;2023-07-30T03:46:46;15.10;99.90
2945;DHT22;1482;51.398;7.128;2023-07-30T03:49:11;15.10;99.90
2945;DHT22;1482;51.398;7.128;2023-07-30T03:51:37;15.10;99.90
2945;DHT22;1482;51.398;7.128;2023-07-30T03:54:04;15.10;99.90
2945;DHT22;1482;51.398;7.128;2023-07-30T03:56:30;15.10;99.90
2945;DHT22;1482;51.398;7.128;2023-07-30T03:58:55;15.00;99.90
2945;DHT22;1482;51.398;7.128;2023-07-30T04:01:21;15.00;1.00
2945;DHT22;1482;51.398;7.128;2023-07-30T04:03:47;15.10;1.00
2945;DHT22;1482;51.398;7.128;2023-07-30T04:06:12;15.10;1.00
2945;DHT22;1482;51.398;7.128;2023-07-30T04:08:38;15.10;1.00
2945;DHT22;1482;51.398;7.128;2023-07-30T04:11:03;15.10;1.00
2945;DHT22;1482;51.398;7.128;2023-07-30T04:13:29;15.20;1.00
2945;DHT22;1482;51.398;7.128;2023-07-30T04:15:54;15.20;99.90
2945;DHT22;1482;51.398;7.128;2023-07-30T04:18:20;15.20;99.90
2945;DHT22;1482;51.398;7.128;2023-07-30T04:20:45;15.30;99.90
2945;DHT22;1482;51.398;7.128;2023-07-30T04:23:11;15.30;39.10
2945;DHT22;1482;51.398;7.128;2023-07-30T04:25:36;15.40;1.00
2945;DHT22;1482;51.398;7.128;2023-07-30T04:28:02;15.40;1.00
2945;DHT22;1482;51.398;7.128;2023-07-30T04:30:28;15.50;1.00
2945;DHT22;1482;51.398;7.128;2023-07-30T04:32:53;15.60;99.90
2945;DHT22;1482;51.398;7.128;2023-07-30T04:35:19;15.70;99.90
2945;DHT22;1482;51.398;7.128;2023-07-30T04:37:44;15.90;99.90
2945;DHT22;1482;51.398;7.128;2023-07-30T04:40:10;16.60;99.90
2945;DHT22;1482;51.398;7.128;2023-07-30T04:42:36;17.70;1.00
2945;DHT22;1482;51.398;7.128;2023-07-30T04:45:01;18.80;99.90
2945;DHT22;1482;51.398;7.128;2023-07-30T04:47:27;19.90;99.90
2945;DHT22;1482;51.398;7.128;2023-07-30T04:49:52;20.70;77.00
2945;DHT22;1482;51.398;7.128;2023-07-30T04:52:19;21.40;23.40
2945;DHT22;1482;51.398;7.128;2023-07-30T04:54:44;21.50;2.50
2945;DHT22;1482;51.398;7.128;2023-07-30T04:57:10;21.00;1.00
2945;DHT22;1482;51.398;7.128;2023-07-30T04:59:35;20.60;13.80
2945;DHT22;1482;51.398;7.128;2023-07-30T05:02:01;20.10;19.40
2945;DHT22;1482;51.398;7.128;2023-07-30T05:04:27;19.70;48.70
2945;DHT22;1482;51.398;7.128;2023-07-30T05:06:52;19.40;63.00
2945;DHT22;1482;51.398;7.128;2023-07-30T05:09:18;19.00;94.00
2945;DHT22;1482;51.398;7.128;2023-07-30T05:11:43;18.80;99.90
2945;DHT22;1482;51.398;7.128;2023-07-30T05:14:09;18.50;99.90
2945;DHT22;1482;51.398;7.128;2023-07-30T05:16:34;18.30;99.90
2945;DHT22;1482;51.398;7.128;2023-07-30T05:19:01;18.00;99.90
2945;DHT22;1482;51.398;7.128;2023-07-30T05:21:27;17.70;99.90
2945;DHT22;1482;51.398;7.128;2023-07-30T05:23:52;17.50;99.90
2945;DHT22;1482;51.398;7.128;2023-07-30T05:26:18;17.30;99.90
2945;DHT22;1482;51.398;7.128;2023-07-30T05:28:44;17.20;99.90
2945;DHT22;1482;51.398;7.128;2023-07-30T05:31:09;17.10;99.90
2945;DHT22;1482;51.398;7.128;2023-07-30T05:33:35;17.00;99.90
2945;DHT22;1482;51.398;7.128;2023-07-30T05:36:00;17.00;99.90
2945;DHT22;1482;51.398;7.128;2023-07-30T05:38:26;17.00;99.90
2945;DHT22;1482;51.398;7.128;2023-07-30T05:40:51;16.90;99.90
2945;DHT22;1482;51.398;7.128;2023-07-30T05:43:17;16.90;99.90
2945;DHT22;1482;51.398;7.128;2023-07-30T05:45:43;16.80;99.90
2945;DHT22;1482;51.398;7.128;2023-07-30T05:48:08;16.80;99.90
2945;DHT22;1482;51.398;7.128;2023-07-30T05:50:34;16.70;99.90
2945;DHT22;1482;51.398;7.128;2023-07-30T05:53:00;16.70;99.90
2945;DHT22;1482;51.398;7.128;2023-07-30T05:55:25;16.60;1.00
2945;DHT22;1482;51.398;7.128;2023-07-30T05:57:51;16.60;1.00
2945;DHT22;1482;51.398;7.128;2023-07-30T06:00:19;16.60;1.00
2945;DHT22;1482;51.398;7.128;2023-07-30T06:02:44;16.40;1.00
2945;DHT22;1482;51.398;7.128;2023-07-30T06:05:10;16.50;1.00
2945;DHT22;1482;51.398;7.128;2023-07-30T06:07:36;16.40;1.00
2945;DHT22;1482;51.398;7.128;2023-07-30T06:10:01;16.40;1.00
2945;DHT22;1482;51.398;7.128;2023-07-30T06:12:27;16.50;1.00
2945;DHT22;1482;51.398;7.128;2023-07-30T06:14:52;16.50;1.00
2945;DHT22;1482;51.398;7.128;2023-07-30T06:17:18;16.60;1.00
2945;DHT22;1482;51.398;7.128;2023-07-30T06:19:43;16.50;1.00
2945;DHT22;1482;51.398;7.128;2023-07-30T06:22:09;16.60;1.00
2945;DHT22;1482;51.398;7.128;2023-07-30T06:24:34;16.60;1.00
2945;DHT22;1482;51.398;7.128;2023-07-30T06:27:00;16.60;1.00
2945;DHT22;1482;51.398;7.128;2023-07-30T06:29:25;16.60;99.90
2945;DHT22;1482;51.398;7.128;2023-07-30T06:31:51;16.60;99.90
2945;DHT22;1482;51.398;7.128;2023-07-30T06:34:16;16.60;1.00
2945;DHT22;1482;51.398;7.128;2023-07-30T06:36:42;16.50;1.00
2945;DHT22;1482;51.398;7.128;2023-07-30T06:39:07;16.60;1.00
2945;DHT22;1482;51.398;7.128;2023-07-30T06:41:33;16.50;1.00
2945;DHT22;1482;51.398;7.128;2023-07-30T06:43:58;16.50;1.00
2945;DHT22;1482;51.398;7.128;2023-07-30T06:46:24;16.50;1.00
2945;DHT22;1482;51.398;7.128;2023-07-30T06:48:49;16.50;1.00
2945;DHT22;1482;51.398;7.128;2023-07-30T06:51:19;16.60;1.00
2945;DHT22;1482;51.398;7.128;2023-07-30T06:53:44;16.60;1.00
2945;DHT22;1482;51.398;7.128;2023-07-30T06:56:10;16.60;1.00
2945;DHT22;1482;51.398;7.128;2023-07-30T06:58:35;16.60;1.00
2945;DHT22;1482;51.398;7.128;2023-07-30T07:01:01;16.60;1.00
2945;DHT22;1482;51.398;7.128;2023-07-30T07:03:26;16.60;1.00
2945;DHT22;1482;51.398;7.128;2023-07-30T07:05:53;16.70;1.00
2945;DHT22;1482;51.398;7.128;2023-07-30T07:08:20;16.70;1.00
2945;DHT22;1482;51.398;7.128;2023-07-30T07:10:45;16.70;1.00
2945;DHT22;1482;51.398;7.128;2023-07-30T07:13:11;16.60;1.00
2945;DHT22;1482;51.398;7.128;2023-07-30T07:15:43;16.60;1.00
2945;DHT22;1482;51.398;7.128;2023-07-30T07:18:09;16.60;1.00
2945;DHT22;1482;51.398;7.128;2023-07-30T07:20:35;16.70;1.00
2945;DHT22;1482;51.398;7.128;2023-07-30T07:23:01;16.60;1.00
2945;DHT22;1482;51.398;7.128;2023-07-30T07:25:27;16.70;1.00
2945;DHT22;1482;51.398;7.128;2023-07-30T07:27:52;16.70;1.00
2945;DHT22;1482;51.398;7.128;2023-07-30T07:30:18;16.80;1.00
2945;DHT22;1482;51.398;7.128;2023-07-30T07:32:43;16.80;1.00
2945;DHT22;1482;51.398;7.128;2023-07-30T07:35:09;16.80;1.00
2945;DHT22;1482;51.398;7.128;2023-07-30T07:37:34;16.80;1.00
2945;DHT22;1482;51.398;7.128;2023-07-30T07:40:00;16.80;1.00
2945;DHT22;1482;51.398;7.128;2023-07-30T07:42:26;16.90;1.00
2945;DHT22;1482;51.398;7.128;2023-07-30T07:44:51;16.80;1.00
2945;DHT22;1482;51.398;7.128;2023-07-30T07:47:17;16.90;1.00
2945;DHT22;1482;51.398;7.128;2023-07-30T07:49:42;16.80;1.00
2945;DHT22;1482;51.398;7.128;2023-07-30T07:52:08;16.90;1.00
2945;DHT22;1482;51.398;7.128;2023-07-30T07:54:34;16.90;1.00
2945;DHT22;1482;51.398;7.128;2023-07-30T07:57:00;17.10;1.00
2945;DHT22;1482;51.398;7.128;2023-07-30T07:59:25;17.10;99.90
2945;DHT22;1482;51.398;7.128;2023-07-30T08:01:53;17.30;99.90
2945;DHT22;1482;51.398;7.128;2023-07-30T08:04:19;17.40;99.90
2945;DHT22;1482;51.398;7.128;2023-07-30T08:06:46;17.50;99.90
2945;DHT22;1482;51.398;7.128;2023-07-30T08:09:12;17.60;99.90
2945;DHT22;1482;51.398;7.128;2023-07-30T08:11:37;17.70;99.90
2945;DHT22;1482;51.398;7.128;2023-07-30T08:14:03;17.80;99.90
2945;DHT22;1482;51.398;7.128;2023-07-30T08:16:29;17.90;99.90
2945;DHT22;1482;51.398;7.128;2023-07-30T08:18:54;17.90;99.90
2945;DHT22;1482;51.398;7.128;2023-07-30T08:21:20;17.80;99.90
2945;DHT22;1482;51.398;7.128;2023-07-30T08:23:46;17.90;99.90
2945;DHT22;1482;51.398;7.128;2023-07-30T08:26:12;17.80;99.90
2945;DHT22;1482;51.398;7.128;2023-07-30T08:28:37;17.80;99.90
2945;DHT22;1482;51.398;7.128;2023-07-30T08:31:03;17.80;99.90
2945;DHT22;1482;51.398;7.128;2023-07-30T08:33:29;17.90;99.90
2945;DHT22;1482;51.398;7.128;2023-07-30T08:35:55;17.90;99.90
2945;DHT22;1482;51.398;7.128;2023-07-30T08:38:21;17.80;99.90
2945;DHT22;1482;51.398;7.128;2023-07-30T08:40:47;17.90;99.90
2945;DHT22;1482;51.398;7.128;2023-07-30T08:43:13;18.00;99.90
2945;DHT22;1482;51.398;7.128;2023-07-30T08:45:38;18.00;99.90
2945;DHT22;1482;51.398;7.128;2023-07-30T08:48:04;18.10;99.90
2945;DHT22;1482;51.398;7.128;2023-07-30T08:50:30;18.30;99.90
2945;DHT22;1482;51.398;7.128;2023-07-30T08:52:55;18.40;99.90
2945;DHT22;1482;51.398;7.128;2023-07-30T08:55:23;18.70;99.90
2945;DHT22;1482;51.398;7.128;2023-07-30T08:57:50;19.10;99.90
2945;DHT22;1482;51.398;7.128;2023-07-30T09:00:19;19.50;99.90
2945;DHT22;1482;51.398;7.128;2023-07-30T09:02:49;19.90;89.20
2945;DHT22;1482;51.398;7.128;2023-07-30T09:05:16;20.50;66.50
2945;DHT22;1482;51.398;7.128;2023-07-30T09:07:42;21.00;28.80
2945;DHT22;1482;51.398;7.128;2023-07-30T09:10:08;21.10;14.20
2945;DHT22;1482;51.398;7.128;2023-07-30T09:12:35;21.40;8.50
2945;DHT22;1482;51.398;7.128;2023-07-30T09:15:02;21.50;4.00
2945;DHT22;1482;51.398;7.128;2023-07-30T09:17:30;21.70;4.80
2945;DHT22;1482;51.398;7.128;2023-07-30T09:19:55;21.60;1.00
2945;DHT22;1482;51.398;7.128;2023-07-30T09:22:28;21.60;1.00
2945;DHT22;1482;51.398;7.128;2023-07-30T09:24:55;21.40;1.00
2945;DHT22;1482;51.398;7.128;2023-07-30T09:27:23;21.30;1.00
2945;DHT22;1482;51.398;7.128;2023-07-30T09:29:53;21.50;4.30
2945;DHT22;1482;51.398;7.128;2023-07-30T09:32:20;22.00;1.20
2945;DHT22;1482;51.398;7.128;2023-07-30T09:34:45;22.40;1.00
2945;DHT22;1482;51.398;7.128;2023-07-30T09:37:12;22.70;1.00
2945;DHT22;1482;51.398;7.128;2023-07-30T09:39:37;23.10;1.00
2945;DHT22;1482;51.398;7.128;2023-07-30T09:42:03;23.60;1.00
2945;DHT22;1482;51.398;7.128;2023-07-30T09:44:32;24.10;1.00
2945;DHT22;1482;51.398;7.128;2023-07-30T09:46:58;24.50;1.00
2945;DHT22;1482;51.398;7.128;2023-07-30T09:49:24;24.80;1.00
2945;DHT22;1482;51.398;7.128;2023-07-30T09:51:51;25.10;1.00
2945;DHT22;1482;51.398;7.128;2023-07-30T09:54:17;25.40;1.00
2945;DHT22;1482;51.398;7.128;2023-07-30T09:56:42;25.10;1.00
2945;DHT22;1482;51.398;7.128;2023-07-30T09:59:09;25.00;1.00
2945;DHT22;1482;51.398;7.128;2023-07-30T10:01:53;24.90;1.00
2945;DHT22;1482;51.398;7.128;2023-07-30T10:04:22;25.10;1.00
2945;DHT22;1482;51.398;7.128;2023-07-30T10:06:58;25.00;1.00
2945;DHT22;1482;51.398;7.128;2023-07-30T10:09:28;24.90;1.00
2945;DHT22;1482;51.398;7.128;2023-07-30T10:11:55;25.00;1.00
2945;DHT22;1482;51.398;7.128;2023-07-30T10:14:22;25.10;1.00
2945;DHT22;1482;51.398;7.128;2023-07-30T10:16:56;25.10;1.00
2945;DHT22;1482;51.398;7.128;2023-07-30T10:19:25;24.80;1.00
2945;DHT22;1482;51.398;7.128;2023-07-30T10:21:51;24.60;1.00
2945;DHT22;1482;51.398;7.128;2023-07-30T10:24:16;24.70;1.00
2945;DHT22;1482;51.398;7.128;2023-07-30T10:26:42;24.80;1.00
2945;DHT22;1482;51.398;7.128;2023-07-30T10:29:12;24.90;1.00
2945;DHT22;1482;51.398;7.128;2023-07-30T10:31:39;25.00;1.00
2945;DHT22;1482;51.398;7.128;2023-07-30T10:34:10;25.10;1.00
2945;DHT22;1482;51.398;7.128;2023-07-30T10:36:44;25.10;1.00
2945;DHT22;1482;51.398;7.128;2023-07-30T10:39:21;25.20;1.00
2945;DHT22;1482;51.398;7.128;2023-07-30T10:41:51;24.80;1.00
2945;DHT22;1482;51.398;7.128;2023-07-30T10:44:39;24.80;1.00
2945;DHT22;1482;51.398;7.128;2023-07-30T10:47:03;24.70;1.00
2945;DHT22;1482;51.398;7.128;2023-07-30T10:49:30;24.40;1.00
2945;DHT22;1482;51.398;7.128;2023-07-30T10:52:01;24.20;1.00
2945;DHT22;1482;51.398;7.128;2023-07-30T10:54:36;23.90;1.00
2945;DHT22;1482;51.398;7.128;2023-07-30T10:57:02;23.70;1.00
2945;DHT22;1482;51.398;7.128;2023-07-30T10:59:38;23.40;1.00
2945;DHT22;1482;51.398;7.128;2023-07-30T11:02:04;23.00;1.00
2945;DHT22;1482;51.398;7.128;2023-07-30T11:04:34;22.90;1.00
2945;DHT22;1482;51.398;7.128;2023-07-30T11:06:59;23.10;1.00
2945;DHT22;1482;51.398;7.128;2023-07-30T11:09:26;23.30;1.00
2945;DHT22;1482;51.398;7.128;2023-07-30T11:11:54;23.70;1.00
2945;DHT22;1482;51.398;7.128;2023-07-30T11:14:22;23.80;1.00
2945;DHT22;1482;51.398;7.128;2023-07-30T11:16:56;23.90;1.00
2945;DHT22;1482;51.398;7.128;2023-07-30T11:19:26;23.70;1.00
2945;DHT22;1482;51.398;7.128;2023-07-30T11:21:53;23.90;1.00
2945;DHT22;1482;51.398;7.128;2023-07-30T11:24:22;23.90;1.00
2945;DHT22;1482;51.398;7.128;2023-07-30T11:26:59;24.10;1.00
2945;DHT22;1482;51.398;7.128;2023-07-30T11:29:25;23.90;1.00
2945;DHT22;1482;51.398;7.128;2023-07-30T11:31:50;23.80;1.00
2945;DHT22;1482;51.398;7.128;2023-07-30T11:34:16;23.50;1.00
2945;DHT22;1482;51.398;7.128;2023-07-30T11:36:44;23.40;1.00
2945;DHT22;1482;51.398;7.128;2023-07-30T11:39:10;23.40;1.00
2945;DHT22;1482;51.398;7.128;2023-07-30T11:41:36;23.30;1.00
2945;DHT22;1482;51.398;7.128;2023-07-30T11:44:03;23.60;1.00
2945;DHT22;1482;51.398;7.128;2023-07-30T11:46:29;23.70;1.00
2945;DHT22;1482;51.398;7.128;2023-07-30T11:49:14;24.10;1.00
2945;DHT22;1482;51.398;7.128;2023-07-30T11:51:40;24.20;1.00
2945;DHT22;1482;51.398;7.128;2023-07-30T11:54:07;24.30;1.00
2945;DHT22;1482;51.398;7.128;2023-07-30T11:56:32;24.00;1.00
2945;DHT22;1482;51.398;7.128;2023-07-30T11:59:05;23.80;1.00
2945;DHT22;1482;51.398;7.128;2023-07-30T12:01:33;23.70;1.00
2945;DHT22;1482;51.398;7.128;2023-07-30T12:04:03;23.90;1.00
2945;DHT22;1482;51.398;7.128;2023-07-30T12:09:13;24.30;1.00
2945;DHT22;1482;51.398;7.128;2023-07-30T12:14:12;25.00;1.00
2945;DHT22;1482;51.398;7.128;2023-07-30T12:16:37;25.00;1.00
2945;DHT22;1482;51.398;7.128;2023-07-30T12:19:03;25.10;1.00
2945;DHT22;1482;51.398;7.128;2023-07-30T12:21:29;24.80;1.00
2945;DHT22;1482;51.398;7.128;2023-07-30T12:23:54;24.70;1.00
2945;DHT22;1482;51.398;7.128;2023-07-30T12:26:20;24.70;1.00
2945;DHT22;1482;51.398;7.128;2023-07-30T12:28:45;24.50;1.00
2945;DHT22;1482;51.398;7.128;2023-07-30T12:31:11;24.40;1.00
2945;DHT22;1482;51.398;7.128;2023-07-30T12:33:37;24.60;1.00
2945;DHT22;1482;51.398;7.128;2023-07-30T12:36:02;24.50;1.00
2945;DHT22;1482;51.398;7.128;2023-07-30T12:38:28;24.50;1.00
2945;DHT22;1482;51.398;7.128;2023-07-30T12:40:53;24.50;1.00
2945;DHT22;1482;51.398;7.128;2023-07-30T12:43:19;24.50;1.00
2945;DHT22;1482;51.398;7.128;2023-07-30T12:45:45;24.60;1.00
2945;DHT22;1482;51.398;7.128;2023-07-30T12:48:11;24.60;1.00
2945;DHT22;1482;51.398;7.128;2023-07-30T12:50:37;24.50;1.00
2945;DHT22;1482;51.398;7.128;2023-07-30T12:53:03;24.50;1.00
2945;DHT22;1482;51.398;7.128;2023-07-30T12:55:29;24.40;1.00
2945;DHT22;1482;51.398;7.128;2023-07-30T12:57:55;24.00;1.00
2945;DHT22;1482;51.398;7.128;2023-07-30T13:00:20;23.70;1.00
2945;DHT22;1482;51.398;7.128;2023-07-30T13:02:46;23.60;1.00
2945;DHT22;1482;51.398;7.128;2023-07-30T13:05:11;23.60;1.00
2945;DHT22;1482;51.398;7.128;2023-07-30T13:07:39;23.60;1.00
2945;DHT22;1482;51.398;7.128;2023-07-30T13:10:06;23.80;1.00
2945;DHT22;1482;51.398;7.128;2023-07-30T13:12:32;24.10;1.00
2945;DHT22;1482;51.398;7.128;2023-07-30T13:14:59;24.30;1.00
2945;DHT22;1482;51.398;7.128;2023-07-30T13:17:24;24.50;1.00
2945;DHT22;1482;51.398;7.128;2023-07-30T13:19:50;24.60;1.00
2945;DHT22;1482;51.398;7.128;2023-07-30T13:22:15;24.30;1.00
2945;DHT22;1482;51.398;7.128;2023-07-30T13:24:41;24.40;1.00
2945;DHT22;1482;51.398;7.128;2023-07-30T13:27:06;24.30;1.00
2945;DHT22;1482;51.398;7.128;2023-07-30T13:29:32;24.40;1.00
2945;DHT22;1482;51.398;7.128;2023-07-30T13:31:57;24.40;1.00
2945;DHT22;1482;51.398;7.128;2023-07-30T13:34:23;24.30;1.00
2945;DHT22;1482;51.398;7.128;2023-07-30T13:36:49;24.30;1.00
2945;DHT22;1482;51.398;7.128;2023-07-30T13:39:14;24.10;1.00
2945;DHT22;1482;51.398;7.128;2023-07-30T13:41:40;24.20;1.00
2945;DHT22;1482;51.398;7.128;2023-07-30T13:44:05;24.00;1.00
2945;DHT22;1482;51.398;7.128;2023-07-30T13:46:31;23.90;1.00
2945;DHT22;1482;51.398;7.128;2023-07-30T13:48:56;23.70;1.00
2945;DHT22;1482;51.398;7.128;2023-07-30T13:51:22;23.70;1.00
2945;DHT22;1482;51.398;7.128;2023-07-30T13:53:48;23.60;1.00
2945;DHT22;1482;51.398;7.128;2023-07-30T13:56:14;23.40;1.00
2945;DHT22;1482;51.398;7.128;2023-07-30T13:58:39;23.30;1.00
2945;DHT22;1482;51.398;7.128;2023-07-30T14:01:06;23.00;1.00
2945;DHT22;1482;51.398;7.128;2023-07-30T14:03:31;23.20;1.00
2945;DHT22;1482;51.398;7.128;2023-07-30T14:05:57;23.40;1.00
2945;DHT22;1482;51.398;7.128;2023-07-30T14:08:23;23.50;1.00
2945;DHT22;1482;51.398;7.128;2023-07-30T14:10:49;23.70;1.00
2945;DHT22;1482;51.398;7.128;2023-07-30T14:13:14;23.90;1.00
2945;DHT22;1482;51.398;7.128;2023-07-30T14:15:40;24.10;1.00
2945;DHT22;1482;51.398;7.128;2023-07-30T14:18:06;23.90;1.00
2945;DHT22;1482;51.398;7.128;2023-07-30T14:20:31;24.00;1.00
2945;DHT22;1482;51.398;7.128;2023-07-30T14:22:58;23.90;1.00
2945;DHT22;1482;51.398;7.128;2023-07-30T14:25:26;23.90;1.00
2945;DHT22;1482;51.398;7.128;2023-07-30T14:27:52;23.80;1.00
2945;DHT22;1482;51.398;7.128;2023-07-30T14:30:17;23.60;1.00
2945;DHT22;1482;51.398;7.128;2023-07-30T14:32:43;23.60;1.00
2945;DHT22;1482;51.398;7.128;2023-07-30T14:35:09;23.40;1.00
2945;DHT22;1482;51.398;7.128;2023-07-30T14:37:34;23.20;1.00
2945;DHT22;1482;51.398;7.128;2023-07-30T14:40:00;23.00;1.00
2945;DHT22;1482;51.398;7.128;2023-07-30T14:42:25;22.90;1.00
2945;DHT22;1482;51.398;7.128;2023-07-30T14:44:51;22.80;1.00
2945;DHT22;1482;51.398;7.128;2023-07-30T14:47:16;22.90;1.00
2945;DHT22;1482;51.398;7.128;2023-07-30T14:49:42;23.20;1.00
2945;DHT22;1482;51.398;7.128;2023-07-30T14:52:08;23.50;1.00
2945;DHT22;1482;51.398;7.128;2023-07-30T14:54:34;23.80;1.00
2945;DHT22;1482;51.398;7.128;2023-07-30T14:56:59;23.80;1.00
2945;DHT22;1482;51.398;7.128;2023-07-30T14:59:25;23.90;1.00
2945;DHT22;1482;51.398;7.128;2023-07-30T15:01:51;23.80;1.00
2945;DHT22;1482;51.398;7.128;2023-07-30T15:04:16;23.60;1.00
2945;DHT22;1482;51.398;7.128;2023-07-30T15:06:42;23.70;1.00
2945;DHT22;1482;51.398;7.128;2023-07-30T15:09:07;23.80;1.00
2945;DHT22;1482;51.398;7.128;2023-07-30T15:11:33;23.60;1.00
2945;DHT22;1482;51.398;7.128;2023-07-30T15:13:58;23.70;1.00
2945;DHT22;1482;51.398;7.128;2023-07-30T15:16:24;23.90;1.00
2945;DHT22;1482;51.398;7.128;2023-07-30T15:18:49;23.90;1.00
2945;DHT22;1482;51.398;7.128;2023-07-30T15:21:16;23.90;1.00
2945;DHT22;1482;51.398;7.128;2023-07-30T15:23:45;23.90;1.00
2945;DHT22;1482;51.398;7.128;2023-07-30T15:26:11;23.80;1.00
2945;DHT22;1482;51.398;7.128;2023-07-30T15:28:36;23.80;1.00
2945;DHT22;1482;51.398;7.128;2023-07-30T15:31:02;23.70;1.00
2945;DHT22;1482;51.398;7.128;2023-07-30T15:33:27;23.60;1.00
2945;DHT22;1482;51.398;7.128;2023-07-30T15:35:53;23.60;1.00
2945;DHT22;1482;51.398;7.128;2023-07-30T15:38:18;23.60;1.00
2945;DHT22;1482;51.398;7.128;2023-07-30T15:40:44;23.50;1.00
2945;DHT22;1482;51.398;7.128;2023-07-30T15:43:09;23.40;1.00
2945;DHT22;1482;51.398;7.128;2023-07-30T15:45:37;23.30;1.00
2945;DHT22;1482;51.398;7.128;2023-07-30T15:48:08;23.20;1.00
2945;DHT22;1482;51.398;7.128;2023-07-30T15:50:34;23.10;1.00
2945;DHT22;1482;51.398;7.128;2023-07-30T15:52:59;23.10;1.00
2945;DHT22;1482;51.398;7.128;2023-07-30T15:55:25;23.10;1.00
2945;DHT22;1482;51.398;7.128;2023-07-30T15:57:50;23.20;1.00
2945;DHT22;1482;51.398;7.128;2023-07-30T16:00:18;23.20;1.00
2945;DHT22;1482;51.398;7.128;2023-07-30T16:02:45;23.20;1.00
2945;DHT22;1482;51.398;7.128;2023-07-30T16:05:11;23.30;1.00
2945;DHT22;1482;51.398;7.128;2023-07-30T16:07:36;23.30;1.00
2945;DHT22;1482;51.398;7.128;2023-07-30T16:10:03;23.30;1.00